createdAt,value
2022-11-12T00:01:45.329Z,9.10
2022-11-12T00:04:31.381Z,9.73
2022-11-12T00:07:17.680Z,8.83
2022-11-12T00:10:03.998Z,8.23
2022-11-12T00:12:50.693Z,6.63
2022-11-12T00:15:37.140Z,9.10
2022-11-12T00:18:24.798Z,8.87
2022-11-12T00:21:11.060Z,9.47
2022-11-12T00:23:57.223Z,9.10
2022-11-12T00:26:43.257Z,7.93
2022-11-12T00:29:29.363Z,7.03
2022-11-12T00:32:15.634Z,8.97
2022-11-12T00:35:03.142Z,9.00
2022-11-12T00:37:54.049Z,9.13
2022-11-12T00:40:42.128Z,5.93
2022-11-12T00:43:28.574Z,6.37
2022-11-12T00:46:14.891Z,7.73
2022-11-12T00:49:01.814Z,8.30
2022-11-12T00:51:49.880Z,7.33
2022-11-12T00:54:36.217Z,6.97
2022-11-12T00:57:22.342Z,7.23
2022-11-12T01:00:09.594Z,7.07
2022-11-12T01:02:56.627Z,6.87
2022-11-12T01:05:42.702Z,8.23
2022-11-12T01:08:31.680Z,7.40
2022-11-12T01:11:20.661Z,6.53
2022-11-12T01:14:09.350Z,6.97
2022-11-12T01:16:55.521Z,7.00
2022-11-12T01:19:41.690Z,5.87
2022-11-12T01:22:27.986Z,5.90
2022-11-12T01:25:15.420Z,7.83
2022-11-12T01:28:01.532Z,5.37
2022-11-12T01:30:47.676Z,5.90
2022-11-12T01:33:33.802Z,5.97
2022-11-12T01:36:20.589Z,6.93
2022-11-12T01:39:08.876Z,6.73
2022-11-12T01:41:56.643Z,7.33
2022-11-12T01:44:46.049Z,5.97
2022-11-12T01:47:35.709Z,7.43
2022-11-12T01:50:26.280Z,6.97
2022-11-12T01:53:14.713Z,7.93
2022-11-12T01:56:01.979Z,8.87
2022-11-12T01:58:53.505Z,7.77
2022-11-12T02:01:40.128Z,6.87
2022-11-12T02:04:28.668Z,6.47
2022-11-12T02:07:15.556Z,5.50
2022-11-12T02:10:03.480Z,7.13
2022-11-12T02:13:08.960Z,7.20
2022-11-12T02:15:56.901Z,5.27
2022-11-12T02:18:43.201Z,6.30
2022-11-12T02:21:31.026Z,6.33
2022-11-12T02:24:37.850Z,7.03
2022-11-12T02:27:25.190Z,7.23
2022-11-12T02:30:12.799Z,6.60
2022-11-12T02:32:59.660Z,7.00
2022-11-12T02:35:46.375Z,5.87
2022-11-12T02:38:33.886Z,5.83
2022-11-12T02:41:20.572Z,5.50
2022-11-12T02:44:06.833Z,6.60
2022-11-12T02:46:52.957Z,4.57
2022-11-12T02:49:39.058Z,5.50
2022-11-12T02:52:25.286Z,4.90
2022-11-12T02:55:14.082Z,6.13
2022-11-12T02:58:00.713Z,5.37
2022-11-12T03:00:48.201Z,4.47
2022-11-12T03:03:34.284Z,4.80
2022-11-12T03:06:20.602Z,6.30
2022-11-12T03:09:06.756Z,7.53
2022-11-12T03:11:54.285Z,7.30
2022-11-12T03:14:40.469Z,8.00
2022-11-12T03:17:26.760Z,7.60
2022-11-12T03:20:13.325Z,7.17
2022-11-12T03:23:01.483Z,6.30
2022-11-12T03:25:47.608Z,8.83
2022-11-12T03:28:35.202Z,10.63
2022-11-12T03:31:21.314Z,10.03
2022-11-12T03:34:07.352Z,9.30
2022-11-12T03:36:53.674Z,8.23
2022-11-12T03:39:40.973Z,8.77
2022-11-12T03:42:27.397Z,8.23
2022-11-12T03:45:15.194Z,10.50
2022-11-12T03:48:01.540Z,8.10
2022-11-12T03:50:47.776Z,8.27
2022-11-12T03:53:33.990Z,8.63
2022-11-12T03:56:20.154Z,7.33
2022-11-12T03:59:06.751Z,6.67
2022-11-12T04:01:54.862Z,9.20
2022-11-12T04:04:58.454Z,7.40
2022-11-12T04:08:01.280Z,6.97
2022-11-12T04:10:47.865Z,7.43
2022-11-12T04:13:34.447Z,9.07
2022-11-12T04:16:40.240Z,7.33
2022-11-12T04:19:59.490Z,9.77
2022-11-12T04:22:46.047Z,8.30
2022-11-12T04:25:49.435Z,8.00
2022-11-12T04:28:35.519Z,9.27
2022-11-12T04:31:20.888Z,10.13
2022-11-12T04:34:20.896Z,9.83
2022-11-12T04:37:08.410Z,9.87
2022-11-12T04:39:55.042Z,11.87
2022-11-12T04:42:59.566Z,11.83
2022-11-12T04:45:48.571Z,13.47
2022-11-12T04:48:34.979Z,11.27
2022-11-12T04:51:38.526Z,12.17
2022-11-12T04:54:26.141Z,12.83
2022-11-12T04:57:12.484Z,10.43
2022-11-12T04:59:58.755Z,12.87
2022-11-12T05:02:44.785Z,15.80
2022-11-12T05:05:33.837Z,14.33
2022-11-12T05:08:20.473Z,12.03
2022-11-12T05:11:12.601Z,10.33
2022-11-12T05:13:58.955Z,11.87
2022-11-12T05:16:45.595Z,8.57
2022-11-12T05:19:31.821Z,8.33
2022-11-12T05:22:42.090Z,8.73
2022-11-12T05:25:24.025Z,8.13
2022-11-12T05:28:11.533Z,7.10
2022-11-12T05:30:58.293Z,6.20
2022-11-12T05:33:44.294Z,6.20
2022-11-12T05:36:30.382Z,8.50
2022-11-12T05:39:16.775Z,6.30
2022-11-12T05:42:17.602Z,9.20
2022-11-12T05:45:06.310Z,9.03
2022-11-12T05:47:52.581Z,10.67
2022-11-12T05:50:58.356Z,8.43
2022-11-12T05:53:45.259Z,10.73
2022-11-12T05:56:31.216Z,8.47
2022-11-12T05:59:17.164Z,9.80
2022-11-12T06:02:04.636Z,10.43
2022-11-12T06:04:51.591Z,9.47
2022-11-12T06:07:37.914Z,10.93
2022-11-12T06:10:23.946Z,8.80
2022-11-12T06:13:10.142Z,8.20
2022-11-12T06:15:57.080Z,8.77
2022-11-12T06:18:44.776Z,8.67
2022-11-12T06:21:30.871Z,9.47
2022-11-12T06:24:17.496Z,8.13
2022-11-12T06:27:03.592Z,11.13
2022-11-12T06:29:50.065Z,10.27
2022-11-12T06:32:38.743Z,11.37
2022-11-12T06:35:26.510Z,14.47
2022-11-12T06:38:12.809Z,15.10
2022-11-12T06:40:59.196Z,13.27
2022-11-12T06:43:48.475Z,13.47
2022-11-12T06:46:34.573Z,9.00
2022-11-12T06:49:21.072Z,13.63
2022-11-12T06:52:13.634Z,11.37
2022-11-12T06:55:02.482Z,14.57
2022-11-12T06:57:52.705Z,13.70
2022-11-12T07:00:38.791Z,15.73
2022-11-12T07:03:25.185Z,14.23
2022-11-12T07:06:14.622Z,15.63
2022-11-12T07:09:02.107Z,17.13
2022-11-12T07:11:48.370Z,17.27
2022-11-12T07:14:34.483Z,14.20
2022-11-12T07:17:22.833Z,12.00
2022-11-12T07:20:12.661Z,14.47
2022-11-12T07:23:01.318Z,13.17
2022-11-12T07:25:48.768Z,16.30
2022-11-12T07:28:35.425Z,14.47
2022-11-12T07:31:21.682Z,13.40
2022-11-12T07:34:07.942Z,12.93
2022-11-12T07:36:54.110Z,17.57
2022-11-12T07:39:40.292Z,16.23
2022-11-12T07:42:27.750Z,13.10
2022-11-12T07:45:15.616Z,13.73
2022-11-12T07:48:03.099Z,13.57
2022-11-12T07:50:49.632Z,11.27
2022-11-12T07:53:39.103Z,11.53
2022-11-12T07:56:27.186Z,11.23
2022-11-12T07:59:15.048Z,15.53
2022-11-12T08:02:01.372Z,16.40
2022-11-12T08:04:47.923Z,15.40
2022-11-12T08:07:34.331Z,16.43
2022-11-12T08:10:20.829Z,16.07
2022-11-12T08:13:07.206Z,14.57
2022-11-12T08:15:58.374Z,15.50
2022-11-12T08:18:44.938Z,12.60
2022-11-12T08:21:31.333Z,12.17
2022-11-12T08:24:17.388Z,11.97
2022-11-12T08:27:06.167Z,11.73
2022-11-12T08:29:55.806Z,13.43
2022-11-12T08:32:44.241Z,13.33
2022-11-12T08:35:31.648Z,14.10
2022-11-12T08:38:17.934Z,13.00
2022-11-12T08:41:06.018Z,14.73
2022-11-12T08:43:52.313Z,15.40
2022-11-12T08:46:38.405Z,14.53
2022-11-12T08:49:26.349Z,13.67
2022-11-12T08:52:12.471Z,14.47
2022-11-12T08:54:58.416Z,12.13
2022-11-12T08:57:48.755Z,11.60
2022-11-12T09:00:37.350Z,11.73
2022-11-12T09:03:26.580Z,10.73
2022-11-12T09:06:14.059Z,12.00
2022-11-12T09:09:00.244Z,12.43
2022-11-12T09:11:46.440Z,13.97
2022-11-12T09:14:33.049Z,17.00
2022-11-12T09:17:19.302Z,10.87
2022-11-12T09:20:06.215Z,14.83
2022-11-12T09:22:54.084Z,10.47
2022-11-12T09:25:40.870Z,8.93
2022-11-12T09:28:27.728Z,10.50
2022-11-12T09:31:14.073Z,10.30
2022-11-12T09:33:59.990Z,7.97
2022-11-12T09:36:46.096Z,7.50
2022-11-12T09:39:33.497Z,7.30
2022-11-12T09:42:22.337Z,8.73
2022-11-12T09:45:14.868Z,8.67
2022-11-12T09:48:07.562Z,8.60
2022-11-12T09:50:59.726Z,10.10
2022-11-12T09:53:51.671Z,9.77
2022-11-12T09:56:39.061Z,11.70
2022-11-12T09:59:29.601Z,9.77
2022-11-12T10:02:28.541Z,12.73
2022-11-12T10:05:26.819Z,8.03
2022-11-12T10:08:29.273Z,7.93
2022-11-12T10:12:03.803Z,11.23
2022-11-12T10:15:35.598Z,8.47
2022-11-12T10:18:33.374Z,8.03
2022-11-12T10:21:30.706Z,6.37
2022-11-12T10:24:17.062Z,5.07
2022-11-12T10:27:12.557Z,6.00
2022-11-12T10:30:05.372Z,5.67
2022-11-12T10:32:53.354Z,8.70
2022-11-12T10:35:39.862Z,5.70
2022-11-12T10:38:29.720Z,5.80
2022-11-12T10:41:21.504Z,5.53
2022-11-12T10:44:14.795Z,5.90
2022-11-12T10:47:27.374Z,8.03
2022-11-12T10:50:21.368Z,6.07
2022-11-12T10:53:11.153Z,7.00
2022-11-12T10:55:59.680Z,6.17
2022-11-12T10:58:46.019Z,6.77
2022-11-12T11:01:35.735Z,5.60
2022-11-12T11:04:33.027Z,8.10
2022-11-12T11:07:23.031Z,4.97
2022-11-12T11:10:25.462Z,5.10
2022-11-12T11:13:22.896Z,5.77
2022-11-12T11:16:15.030Z,7.37
2022-11-12T11:19:05.337Z,7.53
2022-11-12T11:22:07.340Z,5.30
2022-11-12T11:25:13.175Z,5.77
2022-11-12T11:28:12.858Z,6.20
2022-11-12T11:31:06.843Z,7.10
2022-11-12T11:34:04.671Z,7.70
2022-11-12T11:37:08.580Z,6.47
2022-11-12T11:40:06.648Z,6.53
2022-11-12T11:43:17.029Z,7.17
2022-11-12T11:46:12.161Z,5.90
2022-11-12T11:49:16.232Z,5.10
2022-11-12T11:52:15.513Z,4.77
2022-11-12T11:55:18.718Z,7.40
2022-11-12T11:58:17.075Z,6.20
2022-11-12T12:01:14.310Z,5.27
2022-11-12T12:04:18.078Z,4.83
2022-11-12T12:07:18.594Z,4.17
2022-11-12T12:10:34.723Z,5.80
2022-11-12T12:13:40.071Z,6.27
2022-11-12T12:16:37.101Z,5.53
2022-11-12T12:19:36.655Z,4.50
2022-11-12T12:22:28.487Z,6.40
2022-11-12T12:25:20.616Z,5.17
2022-11-12T12:28:15.745Z,7.50
2022-11-12T12:31:08.218Z,8.10
2022-11-12T12:34:02.551Z,6.40
2022-11-12T12:36:55.168Z,8.03
2022-11-12T12:39:49.538Z,7.07
2022-11-12T12:42:43.036Z,5.93
2022-11-12T12:45:39.171Z,8.47
2022-11-12T12:48:30.320Z,8.80
2022-11-12T12:51:16.617Z,10.30
2022-11-12T12:54:02.790Z,7.97
2022-11-12T12:56:49.941Z,7.67
2022-11-12T12:59:37.745Z,9.23
2022-11-12T13:02:25.713Z,11.20
2022-11-12T13:05:25.552Z,5.37
2022-11-12T13:08:14.773Z,9.03
2022-11-12T13:11:01.297Z,7.43
2022-11-12T13:13:47.534Z,4.73
2022-11-12T13:16:59.946Z,4.77
2022-11-12T13:19:48.414Z,7.33
2022-11-12T13:22:48.838Z,8.53
2022-11-12T13:25:34.973Z,6.27
2022-11-12T13:28:21.158Z,4.40
2022-11-12T13:31:27.151Z,4.10
2022-11-12T13:34:21.485Z,3.83
2022-11-12T13:37:13.194Z,5.50
2022-11-12T13:40:04.236Z,4.20
2022-11-12T13:42:51.119Z,3.87
2022-11-12T13:45:46.402Z,3.80
2022-11-12T13:48:39.796Z,4.27
2022-11-12T13:51:35.607Z,3.83
2022-11-12T13:54:26.932Z,3.23
2022-11-12T13:57:15.986Z,3.60
2022-11-12T14:00:21.657Z,4.20
2022-11-12T14:03:09.019Z,4.63
2022-11-12T14:05:55.989Z,4.77
2022-11-12T14:09:02.356Z,4.03
2022-11-12T14:12:09.469Z,3.47
2022-11-12T14:15:11.621Z,4.00
2022-11-12T14:18:03.546Z,3.43
2022-11-12T14:20:50.273Z,4.03
2022-11-12T14:23:39.131Z,5.73
2022-11-12T14:26:37.942Z,4.20
2022-11-12T14:29:24.261Z,4.60
2022-11-12T14:32:10.655Z,2.80
2022-11-12T14:34:56.942Z,4.07
2022-11-12T14:37:47.320Z,4.57
2022-11-12T14:40:36.829Z,3.90
2022-11-12T14:43:30.591Z,2.93
2022-11-12T14:46:28.534Z,3.50
2022-11-12T14:49:22.765Z,4.00
2022-11-12T14:52:16.185Z,6.57
2022-11-12T14:55:08.202Z,6.60
2022-11-12T14:57:58.590Z,6.37
2022-11-12T15:00:48.537Z,4.13
2022-11-12T15:03:35.722Z,4.00
2022-11-12T15:06:30.445Z,3.87
2022-11-12T15:09:18.722Z,2.83
2022-11-12T15:12:06.909Z,3.73
2022-11-12T15:14:53.811Z,3.87
2022-11-12T15:17:43.029Z,4.23
2022-11-12T15:20:29.671Z,3.47
2022-11-12T15:23:18.782Z,2.50
2022-11-12T15:26:05.436Z,4.03
2022-11-12T15:29:02.585Z,3.33
2022-11-12T15:31:53.324Z,3.37
2022-11-12T15:34:51.986Z,3.40
2022-11-12T15:37:43.709Z,2.60
2022-11-12T15:40:30.986Z,2.87
2022-11-12T15:43:19.857Z,2.67
2022-11-12T15:46:06.321Z,2.40
2022-11-12T15:48:56.032Z,3.10
2022-11-12T15:51:43.932Z,4.17
2022-11-12T15:54:29.927Z,2.80
2022-11-12T15:57:18.580Z,3.33
2022-11-12T16:00:08.790Z,3.60
2022-11-12T16:02:59.245Z,2.43
2022-11-12T16:05:46.156Z,2.20
2022-11-12T16:08:33.809Z,3.07
2022-11-12T16:11:38.277Z,2.50
2022-11-12T16:14:25.337Z,3.00
2022-11-12T16:17:14.369Z,2.50
2022-11-12T16:20:01.147Z,3.37
2022-11-12T16:22:47.962Z,4.00
2022-11-12T16:25:38.142Z,4.63
2022-11-12T16:28:24.528Z,4.33
2022-11-12T16:31:10.711Z,2.87
2022-11-12T16:33:56.897Z,3.40
2022-11-12T16:36:42.919Z,4.10
2022-11-12T16:39:29.166Z,3.43
2022-11-12T16:42:16.621Z,5.10
2022-11-12T16:45:02.623Z,4.53
2022-11-12T16:47:51.198Z,4.97
2022-11-12T16:50:37.653Z,3.93
2022-11-12T16:53:23.924Z,3.47
2022-11-12T16:56:13.605Z,3.57
2022-11-12T16:59:01.650Z,4.50
2022-11-12T17:01:48.035Z,7.43
2022-11-12T17:04:34.133Z,5.13
2022-11-12T17:07:20.324Z,4.60
2022-11-12T17:10:07.906Z,4.90
2022-11-12T17:12:54.015Z,4.03
2022-11-12T17:15:42.030Z,5.93
2022-11-12T17:18:28.215Z,6.10
2022-11-12T17:21:15.870Z,5.33
2022-11-12T17:24:02.017Z,4.50
2022-11-12T17:26:48.297Z,5.10
2022-11-12T17:29:34.949Z,5.47
2022-11-12T17:32:23.714Z,5.87
2022-11-12T17:35:10.006Z,5.57
2022-11-12T17:37:56.018Z,7.60
2022-11-12T17:40:42.306Z,12.37
2022-11-12T17:43:28.842Z,11.27
2022-11-12T17:46:16.364Z,11.13
2022-11-12T17:49:04.027Z,10.03
2022-11-12T17:51:50.178Z,8.67
2022-11-12T17:54:36.605Z,6.37
2022-11-12T17:57:22.945Z,5.70
2022-11-12T18:00:10.699Z,6.53
2022-11-12T18:02:57.090Z,5.07
2022-11-12T18:05:44.819Z,5.30
2022-11-12T18:08:31.337Z,4.83
2022-11-12T18:11:17.333Z,6.00
2022-11-12T18:14:07.640Z,5.30
2022-11-12T18:16:54.010Z,4.50
2022-11-12T18:19:40.134Z,7.80
2022-11-12T18:22:27.846Z,6.30
2022-11-12T18:25:14.153Z,7.03
2022-11-12T18:28:00.658Z,5.33
2022-11-12T18:30:46.786Z,5.13
2022-11-12T18:33:35.982Z,5.07
2022-11-12T18:36:24.297Z,7.13
2022-11-12T18:39:19.053Z,5.40
2022-11-12T18:42:05.417Z,5.33
2022-11-12T18:44:51.798Z,5.07
2022-11-12T18:47:37.882Z,5.43
2022-11-12T18:50:24.177Z,5.70
2022-11-12T18:53:10.159Z,5.40
2022-11-12T18:56:01.259Z,5.93
2022-11-12T18:58:47.949Z,6.13
2022-11-12T19:01:34.153Z,7.03
2022-11-12T19:04:20.241Z,7.37
2022-11-12T19:07:06.514Z,7.13
2022-11-12T19:09:52.443Z,6.60
2022-11-12T19:12:39.887Z,7.70
2022-11-12T19:15:27.155Z,6.47
2022-11-12T19:18:14.652Z,5.83
2022-11-12T19:21:05.495Z,10.53
2022-11-12T19:23:54.549Z,17.70
2022-11-12T19:26:41.271Z,16.93
2022-11-12T19:29:28.778Z,14.80
2022-11-12T19:32:14.965Z,16.13
2022-11-12T19:35:01.253Z,17.63
2022-11-12T19:37:47.441Z,15.70
2022-11-12T19:40:33.595Z,16.87
2022-11-12T19:43:19.902Z,15.87
2022-11-12T19:46:09.010Z,16.70
2022-11-12T19:48:55.833Z,14.60
2022-11-12T19:51:42.261Z,14.30
2022-11-12T19:54:28.447Z,14.30
2022-11-12T19:57:14.596Z,14.93
2022-11-12T20:00:00.771Z,12.37
2022-11-12T20:02:48.336Z,10.80
2022-11-12T20:05:34.428Z,10.27
2022-11-12T20:08:24.870Z,11.23
2022-11-12T20:11:12.027Z,10.90
2022-11-12T20:13:58.235Z,10.17
2022-11-12T20:16:44.394Z,11.63
2022-11-12T20:19:32.034Z,11.77
2022-11-12T20:22:18.292Z,10.87
2022-11-12T20:25:05.185Z,11.53
2022-11-12T20:27:51.784Z,11.97
2022-11-12T20:30:38.493Z,11.03
2022-11-12T20:33:24.936Z,13.57
2022-11-12T20:36:14.570Z,11.97
2022-11-12T20:39:02.106Z,11.30
2022-11-12T20:41:48.746Z,10.87
2022-11-12T20:44:35.157Z,13.80
2022-11-12T20:47:21.671Z,12.00
2022-11-12T20:50:08.083Z,12.87
2022-11-12T20:52:55.427Z,10.70
2022-11-12T20:55:41.617Z,13.27
2022-11-12T20:58:30.145Z,14.07
2022-11-12T21:01:19.078Z,15.53
2022-11-12T21:04:05.458Z,11.97
2022-11-12T21:06:52.055Z,13.27
2022-11-12T21:09:40.840Z,16.17
2022-11-12T21:12:27.092Z,13.97
2022-11-12T21:15:13.695Z,14.17
2022-11-12T21:18:00.318Z,14.53
2022-11-12T21:20:47.395Z,14.37
2022-11-12T21:23:35.575Z,14.27
2022-11-12T21:26:24.036Z,14.13
2022-11-12T21:29:10.538Z,14.40
2022-11-12T21:31:56.774Z,13.63
2022-11-12T21:34:43.496Z,14.87
2022-11-12T21:37:29.690Z,14.10
2022-11-12T21:40:16.774Z,13.73
2022-11-12T21:43:04.501Z,14.10
2022-11-12T21:45:50.550Z,13.50
2022-11-12T21:48:36.686Z,14.77
2022-11-12T21:51:24.693Z,14.07
2022-11-12T21:54:13.537Z,14.20
2022-11-12T21:56:59.846Z,13.17
2022-11-12T21:59:47.908Z,14.50
2022-11-12T22:02:34.150Z,14.70
2022-11-12T22:05:20.296Z,13.57
2022-11-12T22:08:06.550Z,18.10
2022-11-12T22:10:52.808Z,13.03
2022-11-12T22:13:39.352Z,15.90
2022-11-12T22:16:29.216Z,18.10
2022-11-12T22:19:16.048Z,15.93
2022-11-12T22:22:02.137Z,16.33
2022-11-12T22:24:48.350Z,15.27
2022-11-12T22:27:34.768Z,17.17
2022-11-12T22:30:20.796Z,14.87
2022-11-12T22:33:08.541Z,16.00
2022-11-12T22:35:54.858Z,16.80
2022-11-12T22:38:42.578Z,16.97
2022-11-12T22:41:31.076Z,13.97
2022-11-12T22:44:17.194Z,16.50
2022-11-12T22:47:03.218Z,16.77
2022-11-12T22:49:50.673Z,16.40
2022-11-12T22:52:36.901Z,14.33
2022-11-12T22:55:22.990Z,18.77
2022-11-12T22:58:09.115Z,13.73
2022-11-12T23:00:55.440Z,16.97
2022-11-12T23:03:42.025Z,13.23
2022-11-12T23:06:31.171Z,16.73
2022-11-12T23:09:17.669Z,14.80
2022-11-12T23:12:04.386Z,15.00
2022-11-12T23:14:51.014Z,10.60
2022-11-12T23:17:37.059Z,13.07
2022-11-12T23:20:23.515Z,12.27
2022-11-12T23:23:11.255Z,12.40
2022-11-12T23:26:03.207Z,12.50
2022-11-12T23:28:50.020Z,14.17
2022-11-12T23:31:36.538Z,13.13
2022-11-12T23:34:22.828Z,14.03
2022-11-12T23:37:08.950Z,11.37
2022-11-12T23:39:56.559Z,12.43
2022-11-12T23:42:42.611Z,11.13
2022-11-12T23:45:28.862Z,12.80
2022-11-12T23:48:15.018Z,13.73
2022-11-12T23:51:04.410Z,12.03
2022-11-12T23:53:51.110Z,11.63
2022-11-12T23:56:38.850Z,12.67
2022-11-12T23:59:25.140Z,13.07
